DAAGDAON

Guest
Details From DAAG - Alger Houari Boumediene
To DAON - ZENATA
Flight Number -
Tags generated
Created
Modified
Stats Distance 251 nm / 466 km
Max Altitude 30,200 ft / 9,205 m
Waypoints 4
Social Downloads 1
Likes 0
Share VATSIM

Download

Looking for another format? Having issues loading an existing format? Contact us
Advertisement - Login to hide

Notes

Basic altitude profile: - Ascent Rate: 2500ft/min - Ascent Speed: 250kts - Cruise Altitude: 35000ft - Cruise Speed: 420kts - Descent Rate: 1500ft/min - Descent Speed: 250kts Options: - Use NATs: yes - Use PACOTS: yes - Use low airways: yes - Use high airways: yes

Route

DAAG DAHRA UA411 MOS DAON

ID Type Via Altitude Latitude Longitude Leg Dist Tot Dist Heading (true) Name
O DAAG APT - 0 ft / 0 m 36.69752˚ 3.21308˚ - 0 nm - Alger Houari Boumediene
DAHRA FIX - 30,200 ft / 9,205 m 36.38333˚ 1.50000˚ 84 nm 84 nm 258° / 257° -
MOS VOR UA411 (AWY-HI) 24,500 ft / 7,468 m 35.89861˚ 0.13639˚ 72 nm 157 nm 247° / 246° MOSTAGANEM VOR-DME
O DAON APT - 0 ft / 0 m 35.01335˚ -1.45720˚ 94 nm 251 nm 236° / 235° ZENATA

Altitude Profile

Advertisement - Login to hide

Weather


0- 5 10 15 20 25 30 35+ Temperature / ° C

Clouds and Precipitation
Forecast for 2018-05-27 18:00 UTC. Updated an hour ago

Ground ~20,000 ft ~40,000 ft Winds

DAAG

Details ICAO DAAG (ALG)
Name Alger Houari Boumediene
Region Algeria
Timezone Africa/Algiers (UTC+1.0)
Stats Elevation 82 ft / 25 m (AMSL)
Location 36.697521° 3.213079°
Runways 2
Magnetic Variation 1.103° E

METAR

DAAG 271800Z 01011KT 340V040 8000 -RA SCT026 SCT040 20/18 Q1014

Decode

TAF

TAF DAAG 271700Z 2718/2818 32008KT 9999 SCT026 SCT086 BKN200 TEMPO 2718/2804 5000 -TSRA FEW023CB PROB40 TEMPO 2719/2723 32020G40KT 3000 TSGRRA BKN015 SCT020CB PROB40 TEMPO 2804/2807 2000 -RA BKN013

Decode

Departure Runways

ID Width Length Bearing (true) Bearing (mag) Surface Threshold Offset Overrun Length
05 197 ft / 60 m 11,459 ft / 3,493 m 52.87° 51.77° Asphalt 0 ft / 0 m 0 ft / 0 m
09 148 ft / 45 m 11,442 ft / 3,487 m 91.75° 90.65° Asphalt 0 ft / 0 m 1,017 ft / 310 m
23 197 ft / 60 m 11,459 ft / 3,493 m 232.89° 231.79° Asphalt 0 ft / 0 m 0 ft / 0 m
27 148 ft / 45 m 11,442 ft / 3,487 m 271.78° 270.68° Asphalt 0 ft / 0 m 0 ft / 0 m

DAON

Details ICAO DAON (TLM)
Name ZENATA
Region Algeria
Timezone Africa/Algiers (UTC+1.0)
Stats Elevation 814 ft / 248 m (AMSL)
Location 35.013350° -1.457202°
Runways 1
Magnetic Variation 0.020° W

METAR

DAON 271800Z 34008KT 9999 FEW026 21/12 Q1015

Decode

TAF

TAF DAON 271700Z 2718/2818 35010KT 9999 SCT020 TEMPO 2718/2721 SCT030TCU BECMG 2722/2724 VRB02KT BECMG 2810/2812 34012KT

Decode

Destination Runways

ID Width Length Bearing (true) Bearing (mag) Surface Threshold Offset Overrun Length
07 148 ft / 45 m 8,521 ft / 2,597 m 69.94° 69.96° Asphalt 0 ft / 0 m 0 ft / 0 m
25 148 ft / 45 m 8,521 ft / 2,597 m 249.96° 249.98° Asphalt 0 ft / 0 m 0 ft / 0 m

Popular Alternatives